Time;durP1;ratioP1;P1;durP2;ratioP2;P2;SDS_P1;SDS_P2;PMS_P1;PMS_P2;Temp;Humidity;BMP_temperature;BMP_pressure;BME280_temperature;BME280_humidity;BME280_pressure;Samples;Min_cycle;Max_cycle;Signal;HPM_P1;HPM_P2
2021/12/06 00:02:01;;;;;;;46.70;19.45;;;;;;;;;;5049959;28;20453;-55
2021/12/06 00:04:30;;;;;;;49.58;20.65;;;;;;;;;;5049043;28;20351;-57
2021/12/06 00:06:58;;;;;;;51.38;19.83;;;;;;;;;;5049816;28;20032;-56
2021/12/06 00:09:25;;;;;;;53.30;20.02;;;;;;;;;;5044526;28;20051;-52
2021/12/06 00:11:57;;;;;;;52.25;20.27;;;;;;;;;;5050101;28;20033;-57
2021/12/06 00:14:27;;;;;;;57.47;21.75;;;;;;;;;;5047152;28;20040;-53
2021/12/06 00:16:54;;;;;;;51.03;19.17;;;;;;;;;;5049065;28;20029;-57
2021/12/06 00:19:20;;;;;;;54.17;19.95;;;;;;;;;;5049748;28;20028;-57
2021/12/06 00:21:46;;;;;;;51.92;20.55;;;;;;;;;;5051647;28;20062;-55
2021/12/06 00:24:12;;;;;;;53.40;20.08;;;;;;;;;;5046058;28;20044;-55
2021/12/06 00:26:37;;;;;;;51.33;20.08;;;;;;;;;;5042939;28;20033;-55
2021/12/06 00:29:04;;;;;;;51.33;18.77;;;;;;;;;;5042289;28;20038;-54
2021/12/06 00:31:33;;;;;;;44.72;19.10;;;;;;;;;;5040724;28;20087;-54
2021/12/06 00:34:03;;;;;;;45.10;18.65;;;;;;;;;;5046961;28;20033;-51
2021/12/06 00:36:31;;;;;;;55.67;20.08;;;;;;;;;;5044737;28;20045;-55
2021/12/06 00:38:57;;;;;;;51.80;18.67;;;;;;;;;;5043837;28;20029;-57
2021/12/06 00:41:24;;;;;;;40.40;16.73;;;;;;;;;;5047804;28;20167;-51
2021/12/06 00:43:50;;;;;;;50.13;17.38;;;;;;;;;;5039755;28;20021;-56
2021/12/06 00:46:16;;;;;;;45.13;19.02;;;;;;;;;;5041669;28;20021;-53
2021/12/06 00:48:42;;;;;;;44.58;17.38;;;;;;;;;;5044612;28;20044;-54
2021/12/06 00:51:08;;;;;;;44.33;16.20;;;;;;;;;;5039009;28;20065;-55
2021/12/06 00:53:34;;;;;;;43.63;16.83;;;;;;;;;;5041473;28;20385;-54
2021/12/06 00:56:00;;;;;;;38.15;16.60;;;;;;;;;;5048854;28;20025;-55
2021/12/06 00:58:26;;;;;;;49.08;15.95;;;;;;;;;;5047087;28;20366;-54
2021/12/06 01:00:53;;;;;;;43.65;17.88;;;;;;;;;;5042503;28;20078;-52
2021/12/06 01:03:22;;;;;;;45.05;16.52;;;;;;;;;;5041882;28;20039;-54
2021/12/06 01:05:48;;;;;;;46.42;17.25;;;;;;;;;;5049725;28;20751;-57
2021/12/06 01:08:14;;;;;;;42.97;16.83;;;;;;;;;;5048378;28;20044;-57
2021/12/06 01:10:41;;;;;;;42.83;17.15;;;;;;;;;;5050407;28;20356;-55
2021/12/06 01:13:07;;;;;;;43.70;16.30;;;;;;;;;;5048257;28;20064;-57
2021/12/06 01:15:34;;;;;;;44.85;17.08;;;;;;;;;;5035948;28;20061;-57
2021/12/06 01:18:01;;;;;;;47.72;18.00;;;;;;;;;;5038320;28;20057;-56
2021/12/06 01:20:30;;;;;;;34.17;15.77;;;;;;;;;;5051585;28;20374;-56
2021/12/06 01:23:02;;;;;;;43.15;18.08;;;;;;;;;;5047046;28;20066;-57
2021/12/06 01:25:40;;;;;;;42.45;17.58;;;;;;;;;;5041949;28;20083;-54
2021/12/06 01:30:59;;;;;;;41.47;17.67;;;;;;;;;;5056405;28;20064;-55
2021/12/06 01:34:05;;;;;;;39.47;16.08;;;;;;;;;;5043491;28;20120;-57
2021/12/06 01:39:16;;;;;;;37.83;17.65;;;;;;;;;;5054992;28;20039;-56
2021/12/06 01:41:50;;;;;;;46.33;16.80;;;;;;;;;;5056186;28;20037;-56
2021/12/06 01:44:51;;;;;;;40.42;17.08;;;;;;;;;;5051103;28;20058;-56
2021/12/06 01:47:19;;;;;;;40.50;16.10;;;;;;;;;;5055875;28;20028;-53
2021/12/06 01:49:46;;;;;;;41.83;15.73;;;;;;;;;;5055516;28;20047;-53
2021/12/06 01:52:21;;;;;;;43.67;17.65;;;;;;;;;;5065068;28;20032;-55
2021/12/06 01:54:47;;;;;;;36.40;16.50;;;;;;;;;;5051730;28;20548;-55
2021/12/06 01:57:13;;;;;;;36.83;15.93;;;;;;;;;;5062791;28;20029;-56
2021/12/06 01:59:39;;;;;;;38.83;16.65;;;;;;;;;;5061272;28;20053;-55
2021/12/06 02:02:06;;;;;;;45.42;17.70;;;;;;;;;;5063243;28;20028;-54
2021/12/06 02:04:33;;;;;;;39.20;15.65;;;;;;;;;;5057592;28;20037;-54
2021/12/06 02:07:00;;;;;;;32.58;14.65;;;;;;;;;;5059437;28;20045;-54
2021/12/06 02:09:27;;;;;;;38.53;15.95;;;;;;;;;;5046858;28;20119;-56
2021/12/06 02:11:54;;;;;;;33.45;14.85;;;;;;;;;;5054915;28;20048;-56
2021/12/06 02:19:49;;;;;;;32.85;14.13;;;;;;;;;;5055292;28;20044;-56
2021/12/06 02:22:17;;;;;;;32.63;14.02;;;;;;;;;;5046754;28;20090;-55
2021/12/06 02:24:43;;;;;;;35.08;14.93;;;;;;;;;;5044765;28;20087;-56
2021/12/06 02:27:10;;;;;;;35.90;14.95;;;;;;;;;;5043817;28;20037;-56
2021/12/06 02:29:36;;;;;;;36.15;14.35;;;;;;;;;;5053326;28;20055;-55
2021/12/06 02:32:09;;;;;;;35.75;14.75;;;;;;;;;;5044784;28;20695;-54
2021/12/06 02:34:35;;;;;;;34.03;14.93;;;;;;;;;;5051929;28;20032;-56
2021/12/06 02:37:01;;;;;;;30.13;13.20;;;;;;;;;;5055481;28;20117;-53
2021/12/06 02:39:29;;;;;;;31.02;13.75;;;;;;;;;;5046540;28;20037;-54
2021/12/06 02:41:56;;;;;;;36.13;13.60;;;;;;;;;;5053797;28;20358;-56
2021/12/06 02:44:23;;;;;;;24.27;11.38;;;;;;;;;;5052502;28;20033;-55
2021/12/06 02:46:49;;;;;;;27.40;12.07;;;;;;;;;;5059878;28;20033;-55
2021/12/06 02:49:15;;;;;;;25.58;12.15;;;;;;;;;;5044441;28;20021;-55
2021/12/06 02:51:41;;;;;;;28.38;12.30;;;;;;;;;;5057341;28;20122;-56
2021/12/06 02:54:09;;;;;;;26.42;12.30;;;;;;;;;;5053833;28;20020;-51
2021/12/06 02:56:51;;;;;;;26.85;12.55;;;;;;;;;;5051115;28;20060;-55
2021/12/06 02:59:17;;;;;;;27.10;12.50;;;;;;;;;;5053761;28;20404;-54
2021/12/06 03:01:45;;;;;;;30.88;13.32;;;;;;;;;;5044862;28;20033;-53
2021/12/06 03:04:11;;;;;;;24.63;12.35;;;;;;;;;;5049387;28;20033;-53
2021/12/06 03:06:37;;;;;;;27.30;13.18;;;;;;;;;;5063880;28;20024;-54
2021/12/06 03:09:07;;;;;;;32.05;12.18;;;;;;;;;;5044543;28;20116;-56
2021/12/06 03:11:41;;;;;;;27.33;12.43;;;;;;;;;;5055510;28;20021;-55
2021/12/06 03:14:08;;;;;;;30.13;12.57;;;;;;;;;;5049699;28;20465;-56
2021/12/06 03:16:35;;;;;;;30.98;12.63;;;;;;;;;;5044327;28;20032;-56
2021/12/06 03:19:01;;;;;;;30.63;13.32;;;;;;;;;;5049744;28;20029;-54
2021/12/06 03:21:27;;;;;;;30.15;13.82;;;;;;;;;;5046478;28;20029;-53
2021/12/06 03:23:55;;;;;;;31.00;13.35;;;;;;;;;;5049829;28;20033;-54
2021/12/06 03:26:21;;;;;;;30.58;13.10;;;;;;;;;;5042596;28;20033;-53
2021/12/06 03:28:47;;;;;;;33.28;13.80;;;;;;;;;;5048131;28;20029;-52
2021/12/06 03:31:14;;;;;;;29.08;12.93;;;;;;;;;;5047769;28;20610;-51
2021/12/06 03:33:42;;;;;;;39.50;15.23;;;;;;;;;;5040893;28;20036;-55
2021/12/06 03:36:09;;;;;;;32.67;15.48;;;;;;;;;;5038575;28;20061;-53
2021/12/06 03:38:35;;;;;;;35.45;16.52;;;;;;;;;;5047983;28;20052;-53
2021/12/06 03:41:01;;;;;;;32.47;14.68;;;;;;;;;;5042262;28;20029;-56
2021/12/06 03:43:27;;;;;;;36.92;15.00;;;;;;;;;;5048442;28;20044;-56
2021/12/06 03:45:53;;;;;;;37.13;16.55;;;;;;;;;;5045783;28;20041;-56
2021/12/06 03:48:19;;;;;;;36.92;16.75;;;;;;;;;;5049606;28;20050;-54
2021/12/06 03:50:45;;;;;;;36.42;15.88;;;;;;;;;;5045309;28;20114;-56
2021/12/06 03:53:11;;;;;;;38.80;15.80;;;;;;;;;;5048193;28;20035;-54
2021/12/06 03:55:37;;;;;;;41.13;17.15;;;;;;;;;;5042271;28;20108;-56
2021/12/06 03:58:04;;;;;;;40.15;16.80;;;;;;;;;;5049415;28;20033;-56
2021/12/06 04:00:30;;;;;;;38.85;17.25;;;;;;;;;;5044617;28;20036;-54
2021/12/06 04:02:56;;;;;;;37.10;16.15;;;;;;;;;;5046901;28;20031;-56
2021/12/06 04:05:22;;;;;;;40.60;17.67;;;;;;;;;;5046053;28;20100;-55
2021/12/06 04:07:48;;;;;;;41.28;16.50;;;;;;;;;;5042041;28;20025;-53
2021/12/06 04:10:14;;;;;;;39.55;17.27;;;;;;;;;;5045401;28;20036;-54
2021/12/06 04:12:40;;;;;;;41.58;17.40;;;;;;;;;;5051580;28;20116;-55
2021/12/06 04:15:08;;;;;;;43.78;17.75;;;;;;;;;;5047538;28;20031;-56
2021/12/06 04:17:34;;;;;;;41.10;17.08;;;;;;;;;;5048510;28;20032;-53
2021/12/06 04:20:00;;;;;;;40.47;17.33;;;;;;;;;;5041096;28;20022;-55
2021/12/06 04:22:27;;;;;;;36.47;16.60;;;;;;;;;;5047935;28;20108;-51
2021/12/06 04:24:53;;;;;;;42.80;17.38;;;;;;;;;;5042539;28;20512;-53
2021/12/06 04:27:21;;;;;;;36.72;16.88;;;;;;;;;;5049601;28;20021;-54
2021/12/06 04:29:48;;;;;;;41.53;17.77;;;;;;;;;;5049112;28;20036;-55
2021/12/06 04:32:14;;;;;;;41.45;19.23;;;;;;;;;;5051866;28;20036;-53
2021/12/06 04:34:40;;;;;;;44.45;17.38;;;;;;;;;;5047390;28;20041;-54
2021/12/06 04:37:07;;;;;;;44.90;17.75;;;;;;;;;;5050077;28;20067;-54
2021/12/06 04:39:33;;;;;;;38.95;17.80;;;;;;;;;;5046012;28;20115;-56
2021/12/06 04:42:00;;;;;;;49.75;19.15;;;;;;;;;;5044808;28;20040;-56
2021/12/06 04:44:26;;;;;;;45.95;18.40;;;;;;;;;;5045280;28;20632;-55
2021/12/06 04:46:52;;;;;;;45.47;18.90;;;;;;;;;;5049148;28;20040;-56
2021/12/06 04:49:18;;;;;;;49.10;19.23;;;;;;;;;;5045311;28;20059;-55
2021/12/06 04:51:46;;;;;;;45.20;19.35;;;;;;;;;;5048652;28;20020;-54
2021/12/06 04:54:12;;;;;;;45.47;19.40;;;;;;;;;;5036571;28;20022;-55
2021/12/06 04:56:40;;;;;;;43.28;18.88;;;;;;;;;;5046933;28;20037;-56
2021/12/06 04:59:12;;;;;;;46.90;19.40;;;;;;;;;;5040099;28;20043;-53
2021/12/06 05:01:38;;;;;;;41.17;18.13;;;;;;;;;;5052644;28;20025;-51
2021/12/06 05:04:07;;;;;;;44.15;19.65;;;;;;;;;;5052785;28;20021;-56
2021/12/06 05:06:35;;;;;;;46.58;19.88;;;;;;;;;;5048071;28;20020;-55
2021/12/06 05:09:06;;;;;;;41.97;18.00;;;;;;;;;;5057644;28;20060;-55
2021/12/06 05:11:33;;;;;;;41.42;18.77;;;;;;;;;;5051594;28;20115;-56
2021/12/06 05:14:02;;;;;;;41.35;20.13;;;;;;;;;;5054650;28;20056;-55
2021/12/06 05:16:28;;;;;;;43.95;19.23;;;;;;;;;;5055509;28;20048;-55
2021/12/06 05:18:54;;;;;;;44.42;18.27;;;;;;;;;;5053482;28;20049;-53
2021/12/06 05:21:20;;;;;;;42.08;17.30;;;;;;;;;;5056424;28;20078;-53
2021/12/06 05:23:46;;;;;;;42.28;19.05;;;;;;;;;;5053228;28;20488;-54
2021/12/06 05:26:12;;;;;;;38.35;17.83;;;;;;;;;;5051919;28;20029;-54
2021/12/06 05:28:43;;;;;;;40.85;19.55;;;;;;;;;;5049696;28;20481;-56
2021/12/06 05:31:14;;;;;;;45.30;20.13;;;;;;;;;;5054311;28;20039;-52
2021/12/06 05:33:42;;;;;;;42.92;17.77;;;;;;;;;;5050362;28;20475;-52
2021/12/06 05:36:08;;;;;;;48.20;19.88;;;;;;;;;;5053368;28;20078;-52
2021/12/06 05:38:34;;;;;;;45.03;19.25;;;;;;;;;;5052327;28;20098;-51
2021/12/06 05:41:00;;;;;;;43.17;18.05;;;;;;;;;;5046259;28;20041;-51
2021/12/06 05:43:27;;;;;;;46.42;20.15;;;;;;;;;;5053985;28;20180;-52
2021/12/06 05:45:53;;;;;;;41.80;19.40;;;;;;;;;;5057987;28;20104;-56
2021/12/06 05:48:19;;;;;;;47.88;18.05;;;;;;;;;;5056884;28;20028;-54
2021/12/06 05:50:46;;;;;;;40.85;18.30;;;;;;;;;;5057082;28;20112;-52
2021/12/06 05:53:12;;;;;;;40.28;18.10;;;;;;;;;;5047539;28;20028;-56
2021/12/06 05:55:39;;;;;;;43.22;19.67;;;;;;;;;;5055573;28;20047;-55
2021/12/06 05:58:06;;;;;;;45.53;18.70;;;;;;;;;;5051899;28;20033;-56
2021/12/06 06:00:32;;;;;;;43.47;18.83;;;;;;;;;;5055988;28;20369;-56
2021/12/06 06:02:59;;;;;;;45.25;18.67;;;;;;;;;;5059402;28;20029;-54
2021/12/06 06:05:25;;;;;;;43.63;18.02;;;;;;;;;;5057554;28;20548;-55
2021/12/06 06:07:51;;;;;;;46.58;19.95;;;;;;;;;;5053117;28;20104;-56
2021/12/06 06:10:17;;;;;;;43.08;18.67;;;;;;;;;;5052889;28;20025;-56
2021/12/06 06:12:45;;;;;;;46.83;18.67;;;;;;;;;;5058203;28;20056;-55
2021/12/06 06:15:11;;;;;;;44.10;18.40;;;;;;;;;;5047973;28;20025;-54
2021/12/06 06:17:42;;;;;;;47.15;18.50;;;;;;;;;;5047292;28;20060;-56
2021/12/06 06:20:14;;;;;;;48.33;19.67;;;;;;;;;;5051397;28;20087;-55
2021/12/06 06:22:41;;;;;;;39.90;17.92;;;;;;;;;;5053287;28;20042;-51
2021/12/06 06:25:07;;;;;;;42.55;19.45;;;;;;;;;;5048934;28;20034;-54
2021/12/06 06:27:33;;;;;;;39.05;17.45;;;;;;;;;;5049348;28;20024;-56
2021/12/06 06:29:59;;;;;;;39.88;17.75;;;;;;;;;;5051272;28;20045;-53
2021/12/06 06:32:25;;;;;;;51.45;19.40;;;;;;;;;;5046947;28;20036;-56
2021/12/06 06:34:51;;;;;;;46.28;19.67;;;;;;;;;;5042743;28;20033;-53
2021/12/06 06:37:17;;;;;;;43.83;20.02;;;;;;;;;;5054286;28;20091;-56
2021/12/06 06:39:43;;;;;;;46.15;19.13;;;;;;;;;;5051029;28;20381;-54
2021/12/06 06:42:09;;;;;;;45.45;19.02;;;;;;;;;;5053391;28;20033;-56
2021/12/06 06:44:35;;;;;;;41.13;18.35;;;;;;;;;;5048595;28;20024;-56
2021/12/06 06:47:01;;;;;;;45.05;18.63;;;;;;;;;;5051587;28;20159;-54
2021/12/06 06:49:30;;;;;;;39.83;18.58;;;;;;;;;;5052694;28;20381;-54
2021/12/06 06:51:57;;;;;;;40.60;18.40;;;;;;;;;;5046677;28;20025;-54
2021/12/06 06:54:23;;;;;;;40.80;17.83;;;;;;;;;;5051623;28;20426;-55
2021/12/06 06:56:49;;;;;;;44.17;19.70;;;;;;;;;;5052198;28;20041;-55
2021/12/06 06:59:15;;;;;;;44.50;18.38;;;;;;;;;;5054361;28;20553;-56
2021/12/06 07:01:41;;;;;;;40.20;17.83;;;;;;;;;;5053284;28;20025;-56
2021/12/06 07:04:07;;;;;;;47.85;19.40;;;;;;;;;;5053533;28;20740;-56
2021/12/06 07:06:34;;;;;;;44.63;18.83;;;;;;;;;;5050463;28;20036;-53
2021/12/06 07:09:00;;;;;;;46.58;19.35;;;;;;;;;;5052398;28;20461;-55
2021/12/06 07:11:28;;;;;;;37.53;19.38;;;;;;;;;;5049089;28;20107;-56
2021/12/06 07:13:54;;;;;;;42.67;18.08;;;;;;;;;;5035371;28;20047;-56
2021/12/06 07:16:20;;;;;;;43.97;18.95;;;;;;;;;;5049205;28;20056;-56
2021/12/06 07:18:46;;;;;;;47.05;18.33;;;;;;;;;;5045140;28;20443;-56
2021/12/06 07:21:13;;;;;;;52.53;20.02;;;;;;;;;;5052971;28;20037;-54
2021/12/06 07:23:40;;;;;;;46.45;18.23;;;;;;;;;;5050183;28;20029;-55
2021/12/06 07:26:07;;;;;;;38.60;17.63;;;;;;;;;;5046201;28;20036;-56
2021/12/06 07:28:33;;;;;;;48.30;19.48;;;;;;;;;;5037957;28;20100;-53
2021/12/06 07:31:01;;;;;;;43.20;19.35;;;;;;;;;;5052909;28;20029;-55
2021/12/06 07:33:27;;;;;;;40.83;17.58;;;;;;;;;;5051471;28;20033;-55
2021/12/06 07:35:53;;;;;;;43.05;18.70;;;;;;;;;;5052787;28;20107;-56
2021/12/06 07:38:19;;;;;;;42.22;17.70;;;;;;;;;;5052765;28;20113;-56
2021/12/06 07:40:49;;;;;;;40.63;17.10;;;;;;;;;;5045351;28;20037;-54
2021/12/06 07:43:15;;;;;;;43.13;18.60;;;;;;;;;;5052218;28;20021;-51
2021/12/06 07:45:42;;;;;;;43.55;19.20;;;;;;;;;;5049700;28;20039;-51
2021/12/06 07:48:07;;;;;;;42.65;18.52;;;;;;;;;;5051828;28;20111;-55
2021/12/06 07:50:33;;;;;;;38.45;17.35;;;;;;;;;;5052875;28;20075;-53
2021/12/06 07:52:59;;;;;;;44.83;18.27;;;;;;;;;;5047442;28;20067;-52
2021/12/06 07:55:30;;;;;;;48.33;19.25;;;;;;;;;;5051109;28;20082;-55
2021/12/06 07:57:57;;;;;;;42.78;18.95;;;;;;;;;;5045905;28;20040;-54
2021/12/06 08:00:24;;;;;;;42.40;19.27;;;;;;;;;;5051715;28;20033;-52
2021/12/06 08:02:50;;;;;;;41.38;18.08;;;;;;;;;;5053040;28;20028;-56
2021/12/06 08:05:33;;;;;;;41.95;19.48;;;;;;;;;;5050577;28;20372;-54
2021/12/06 08:08:09;;;;;;;43.60;18.27;;;;;;;;;;5052043;28;20021;-56
2021/12/06 08:10:37;;;;;;;45.03;18.10;;;;;;;;;;5052049;28;20227;-52
2021/12/06 08:13:03;;;;;;;46.92;18.98;;;;;;;;;;5045348;28;20033;-56
2021/12/06 08:15:30;;;;;;;42.78;17.60;;;;;;;;;;5041647;28;20433;-52
2021/12/06 08:17:56;;;;;;;43.08;18.85;;;;;;;;;;5047011;28;20108;-52
2021/12/06 08:20:22;;;;;;;43.33;19.45;;;;;;;;;;5043604;28;20025;-53
2021/12/06 08:22:48;;;;;;;47.53;19.27;;;;;;;;;;5051221;28;20035;-55
2021/12/06 08:25:15;;;;;;;43.75;18.63;;;;;;;;;;5047288;28;20493;-55
2021/12/06 08:27:41;;;;;;;43.63;18.33;;;;;;;;;;5045325;28;20372;-55
2021/12/06 08:30:08;;;;;;;51.10;19.77;;;;;;;;;;5051219;28;20416;-56
2021/12/06 08:32:34;;;;;;;44.60;18.92;;;;;;;;;;5051371;28;20024;-56
2021/12/06 08:35:00;;;;;;;40.28;16.88;;;;;;;;;;5051650;28;20090;-55
2021/12/06 08:37:26;;;;;;;44.03;17.75;;;;;;;;;;5050126;28;20096;-53
2021/12/06 08:39:52;;;;;;;38.90;18.33;;;;;;;;;;5050490;28;20025;-54
2021/12/06 08:42:18;;;;;;;40.78;19.13;;;;;;;;;;5049001;28;20033;-51
2021/12/06 08:44:44;;;;;;;43.17;18.38;;;;;;;;;;5051714;28;20500;-54
2021/12/06 08:47:10;;;;;;;40.25;18.45;;;;;;;;;;5050136;28;20028;-54
2021/12/06 08:49:36;;;;;;;43.58;18.25;;;;;;;;;;5050687;28;20025;-54
2021/12/06 08:52:04;;;;;;;43.53;18.40;;;;;;;;;;5042848;28;20473;-55
2021/12/06 08:54:30;;;;;;;45.38;17.75;;;;;;;;;;5046687;28;20033;-51
2021/12/06 08:56:57;;;;;;;41.03;18.20;;;;;;;;;;5050561;28;20076;-55
2021/12/06 08:59:23;;;;;;;43.75;17.48;;;;;;;;;;5047214;28;20033;-54
2021/12/06 09:01:50;;;;;;;42.20;18.35;;;;;;;;;;5051367;28;20025;-54
2021/12/06 09:04:16;;;;;;;39.92;18.08;;;;;;;;;;5051154;28;20487;-53
2021/12/06 09:06:44;;;;;;;48.50;19.08;;;;;;;;;;5050251;28;20033;-55
2021/12/06 09:09:12;;;;;;;39.90;16.48;;;;;;;;;;5050623;28;20025;-56
2021/12/06 09:11:39;;;;;;;43.50;18.83;;;;;;;;;;5049695;28;20485;-55
2021/12/06 09:14:05;;;;;;;40.10;17.30;;;;;;;;;;5048079;28;20036;-56
2021/12/06 09:16:31;;;;;;;40.20;17.33;;;;;;;;;;5047866;28;20041;-56
2021/12/06 09:19:00;;;;;;;39.72;17.83;;;;;;;;;;5051336;28;20061;-56
2021/12/06 09:21:26;;;;;;;40.22;17.05;;;;;;;;;;5051772;28;20051;-55
2021/12/06 09:23:53;;;;;;;45.00;17.95;;;;;;;;;;5050964;28;20416;-56
2021/12/06 09:26:19;;;;;;;39.30;17.40;;;;;;;;;;5042938;28;20040;-56
2021/12/06 09:28:45;;;;;;;44.25;18.98;;;;;;;;;;5044426;28;20029;-56
2021/12/06 09:31:13;;;;;;;39.80;17.77;;;;;;;;;;5049267;28;20025;-55
2021/12/06 09:33:39;;;;;;;47.53;18.92;;;;;;;;;;5045077;28;20041;-56
2021/12/06 09:36:06;;;;;;;44.50;18.73;;;;;;;;;;5046255;28;20040;-56
2021/12/06 09:38:37;;;;;;;43.22;17.58;;;;;;;;;;5039553;28;20025;-56
2021/12/06 09:41:04;;;;;;;39.97;17.77;;;;;;;;;;5047368;28;20037;-57
2021/12/06 09:43:30;;;;;;;36.78;16.77;;;;;;;;;;5041817;28;20021;-57
2021/12/06 09:45:56;;;;;;;38.67;17.10;;;;;;;;;;5043470;28;20468;-55
2021/12/06 09:48:22;;;;;;;40.38;17.13;;;;;;;;;;5043549;28;20083;-54
2021/12/06 09:50:51;;;;;;;34.53;17.00;;;;;;;;;;5043525;28;20037;-56
2021/12/06 09:53:18;;;;;;;45.58;17.75;;;;;;;;;;5047488;28;20025;-53
2021/12/06 09:55:45;;;;;;;37.45;16.65;;;;;;;;;;5049886;28;20029;-51
2021/12/06 09:58:11;;;;;;;42.95;16.45;;;;;;;;;;5054074;28;20040;-55
2021/12/06 10:00:41;;;;;;;37.65;17.10;;;;;;;;;;5048049;28;20024;-55
2021/12/06 10:03:08;;;;;;;42.83;17.92;;;;;;;;;;5051174;28;20021;-56
2021/12/06 10:05:35;;;;;;;30.90;14.68;;;;;;;;;;5040796;28;20461;-54
2021/12/06 10:08:01;;;;;;;39.33;14.98;;;;;;;;;;5042501;28;20029;-55
2021/12/06 10:10:28;;;;;;;38.55;16.80;;;;;;;;;;5045368;28;20432;-56
2021/12/06 10:12:55;;;;;;;38.15;16.88;;;;;;;;;;5047538;28;20086;-53
2021/12/06 10:15:22;;;;;;;41.47;16.52;;;;;;;;;;5046491;28;20401;-56
2021/12/06 10:17:49;;;;;;;34.70;15.95;;;;;;;;;;5043884;28;20049;-54
2021/12/06 10:20:15;;;;;;;39.13;16.52;;;;;;;;;;5048667;28;20025;-53
2021/12/06 10:22:41;;;;;;;36.08;15.77;;;;;;;;;;5046600;28;20029;-56
2021/12/06 10:25:08;;;;;;;36.97;15.52;;;;;;;;;;5045108;28;20584;-56
2021/12/06 10:27:35;;;;;;;36.85;15.52;;;;;;;;;;5042293;28;20044;-55
2021/12/06 10:30:04;;;;;;;41.40;15.85;;;;;;;;;;5044361;28;20037;-53
2021/12/06 10:32:32;;;;;;;35.03;16.55;;;;;;;;;;5051233;28;20083;-56
2021/12/06 10:35:01;;;;;;;36.17;16.55;;;;;;;;;;5049499;28;20028;-54
2021/12/06 10:37:32;;;;;;;33.72;14.98;;;;;;;;;;5047040;28;20128;-55
2021/12/06 10:39:58;;;;;;;31.20;14.80;;;;;;;;;;5049075;28;20365;-55
2021/12/06 10:42:28;;;;;;;33.50;15.32;;;;;;;;;;5052841;28;20032;-54
2021/12/06 10:44:54;;;;;;;30.45;13.85;;;;;;;;;;5048443;28;20511;-57
2021/12/06 10:47:20;;;;;;;36.85;15.13;;;;;;;;;;5050915;28;20116;-54
2021/12/06 10:49:47;;;;;;;35.78;15.30;;;;;;;;;;5050486;28;20439;-53
2021/12/06 10:52:23;;;;;;;38.00;15.13;;;;;;;;;;5051493;28;20051;-55
2021/12/06 10:54:52;;;;;;;35.40;15.75;;;;;;;;;;5045734;28;20033;-57
2021/12/06 10:57:19;;;;;;;40.90;15.18;;;;;;;;;;5051873;28;20021;-55
2021/12/06 10:59:45;;;;;;;37.33;15.35;;;;;;;;;;5044905;28;20041;-56
2021/12/06 11:02:12;;;;;;;31.45;14.15;;;;;;;;;;5055851;28;20557;-55
2021/12/06 11:04:39;;;;;;;32.85;14.35;;;;;;;;;;5052199;28;20036;-54
2021/12/06 11:07:06;;;;;;;34.03;14.57;;;;;;;;;;5052798;28;20017;-55
2021/12/06 11:09:33;;;;;;;31.90;14.57;;;;;;;;;;5051319;28;20036;-55
2021/12/06 11:12:01;;;;;;;33.03;13.82;;;;;;;;;;5051306;28;20043;-55
2021/12/06 11:14:32;;;;;;;32.92;14.35;;;;;;;;;;5047412;28;20029;-52
2021/12/06 11:17:00;;;;;;;34.15;14.38;;;;;;;;;;5056417;28;20036;-55
2021/12/06 11:19:28;;;;;;;36.30;16.08;;;;;;;;;;5045314;28;20083;-52
2021/12/06 11:21:56;;;;;;;35.35;15.20;;;;;;;;;;5043545;28;20528;-55
2021/12/06 11:24:27;;;;;;;36.08;14.52;;;;;;;;;;5047241;28;20534;-56
2021/12/06 11:26:55;;;;;;;34.28;14.77;;;;;;;;;;5054525;28;20377;-56
2021/12/06 11:29:28;;;;;;;40.88;15.32;;;;;;;;;;5056535;28;20055;-56
2021/12/06 11:31:56;;;;;;;24.30;9.07;;;;;;;;;;5045020;28;20028;-52
2021/12/06 11:34:25;;;;;;;33.00;13.40;;;;;;;;;;5062933;28;20399;-55
2021/12/06 11:36:50;;;;;;;31.42;13.52;;;;;;;;;;5042610;28;20077;-56
2021/12/06 11:39:19;;;;;;;25.73;12.70;;;;;;;;;;5061238;28;20032;-53
2021/12/06 11:41:48;;;;;;;33.17;14.00;;;;;;;;;;5055578;28;20072;-55
2021/12/06 11:44:14;;;;;;;31.02;13.40;;;;;;;;;;5054927;28;20067;-56
2021/12/06 11:46:40;;;;;;;34.17;13.00;;;;;;;;;;5054549;28;20431;-55
2021/12/06 11:49:16;;;;;;;29.15;12.30;;;;;;;;;;5055905;28;20492;-56
2021/12/06 11:51:42;;;;;;;32.70;12.38;;;;;;;;;;5054749;28;20432;-55
2021/12/06 11:54:09;;;;;;;29.90;12.38;;;;;;;;;;5051282;28;20159;-56
2021/12/06 11:56:44;;;;;;;31.75;13.77;;;;;;;;;;5047038;28;20020;-56
2021/12/06 11:59:11;;;;;;;28.42;12.20;;;;;;;;;;5057973;28;20029;-56
2021/12/06 12:01:39;;;;;;;33.60;12.88;;;;;;;;;;5062148;28;20521;-55
2021/12/06 12:04:09;;;;;;;29.33;13.55;;;;;;;;;;5060559;28;20032;-57
2021/12/06 12:06:42;;;;;;;27.67;12.60;;;;;;;;;;5057845;28;20028;-56
2021/12/06 12:09:31;;;;;;;32.28;13.50;;;;;;;;;;5057808;28;20067;-55
2021/12/06 12:12:05;;;;;;;34.80;13.60;;;;;;;;;;5052657;28;20025;-56
2021/12/06 12:14:42;;;;;;;31.65;12.55;;;;;;;;;;5054494;28;20053;-55
2021/12/06 12:17:28;;;;;;;30.23;13.65;;;;;;;;;;5051542;28;20028;-56
2021/12/06 12:19:55;;;;;;;30.40;12.82;;;;;;;;;;5050515;28;20052;-56
2021/12/06 12:22:22;;;;;;;35.33;13.52;;;;;;;;;;5050326;28;20721;-55
2021/12/06 12:24:52;;;;;;;30.65;13.05;;;;;;;;;;5044010;28;20529;-55
2021/12/06 12:29:51;;;;;;;19.97;9.77;;;;;;;;;;5052122;28;20147;-57
2021/12/06 12:32:18;;;;;;;29.05;13.35;;;;;;;;;;5058167;28;20036;-55
2021/12/06 12:34:46;;;;;;;35.22;13.43;;;;;;;;;;5062323;28;20029;-57
2021/12/06 12:37:13;;;;;;;30.08;13.82;;;;;;;;;;5055846;28;20048;-55
2021/12/06 12:39:39;;;;;;;30.30;12.38;;;;;;;;;;5049317;28;20042;-55
2021/12/06 12:42:06;;;;;;;30.50;13.23;;;;;;;;;;5058125;28;20055;-53
2021/12/06 12:45:03;;;;;;;34.97;13.68;;;;;;;;;;5052823;28;20450;-55
2021/12/06 12:47:30;;;;;;;35.42;13.60;;;;;;;;;;5043048;28;20040;-57
2021/12/06 12:49:58;;;;;;;31.48;13.80;;;;;;;;;;5049158;28;20400;-57
2021/12/06 12:52:55;;;;;;;25.88;12.95;;;;;;;;;;5050101;28;20021;-57
2021/12/06 12:55:30;;;;;;;33.53;13.25;;;;;;;;;;5044592;28;20037;-57
2021/12/06 12:58:15;;;;;;;29.60;13.48;;;;;;;;;;5045724;28;20024;-54
2021/12/06 13:00:46;;;;;;;37.72;15.43;;;;;;;;;;5043204;28;20379;-57
2021/12/06 13:03:30;;;;;;;31.00;13.50;;;;;;;;;;5043218;28;20071;-55
2021/12/06 13:06:12;;;;;;;31.92;13.38;;;;;;;;;;5042895;28;20044;-55
2021/12/06 13:08:38;;;;;;;34.85;13.65;;;;;;;;;;5045259;28;20523;-56
2021/12/06 13:11:04;;;;;;;32.58;13.98;;;;;;;;;;5045198;28;20033;-55
2021/12/06 13:13:34;;;;;;;30.00;13.40;;;;;;;;;;5043608;28;20396;-57
2021/12/06 13:16:21;;;;;;;30.45;13.27;;;;;;;;;;5052076;28;20048;-57
2021/12/06 13:21:31;;;;;;;33.05;13.38;;;;;;;;;;5045311;28;20148;-55
2021/12/06 13:24:09;;;;;;;33.05;14.07;;;;;;;;;;5048559;28;20021;-57
2021/12/06 13:26:36;;;;;;;33.22;12.65;;;;;;;;;;5053061;28;20028;-54
2021/12/06 13:29:09;;;;;;;30.48;13.38;;;;;;;;;;5050015;28;20025;-57
2021/12/06 13:31:35;;;;;;;36.13;13.95;;;;;;;;;;5053172;28;20048;-57
2021/12/06 13:34:16;;;;;;;33.00;14.00;;;;;;;;;;5052883;28;20108;-56
2021/12/06 13:36:46;;;;;;;31.17;13.90;;;;;;;;;;5052920;28;20512;-57
2021/12/06 13:39:31;;;;;;;29.10;13.30;;;;;;;;;;5054100;28;20120;-56
2021/12/06 13:42:01;;;;;;;30.80;12.80;;;;;;;;;;5053784;28;20025;-54
2021/12/06 13:44:39;;;;;;;31.85;13.93;;;;;;;;;;5050920;28;20090;-57
2021/12/06 13:47:09;;;;;;;28.60;12.85;;;;;;;;;;5050166;28;20033;-57
2021/12/06 13:49:35;;;;;;;27.85;13.10;;;;;;;;;;5049930;28;20029;-56
2021/12/06 13:52:04;;;;;;;28.98;12.48;;;;;;;;;;5053131;28;20112;-56
2021/12/06 13:54:36;;;;;;;32.65;14.05;;;;;;;;;;5052230;28;20572;-57
2021/12/06 13:57:04;;;;;;;29.80;13.18;;;;;;;;;;5052529;28;20063;-57
2021/12/06 13:59:38;;;;;;;28.42;13.13;;;;;;;;;;5051032;28;20031;-55
2021/12/06 14:02:06;;;;;;;31.42;14.02;;;;;;;;;;5049017;28;20580;-55
2021/12/06 14:04:34;;;;;;;26.52;12.65;;;;;;;;;;5053258;28;20025;-56
2021/12/06 14:07:03;;;;;;;29.23;13.55;;;;;;;;;;5049179;28;20056;-55
2021/12/06 14:09:30;;;;;;;30.63;13.10;;;;;;;;;;5052656;28;20397;-55
2021/12/06 14:11:58;;;;;;;27.63;12.25;;;;;;;;;;5052316;28;20415;-57
2021/12/06 14:14:25;;;;;;;30.23;12.85;;;;;;;;;;5049624;28;20029;-57
2021/12/06 14:16:52;;;;;;;30.20;12.90;;;;;;;;;;5049855;28;20096;-56
2021/12/06 14:19:18;;;;;;;26.65;11.43;;;;;;;;;;5052053;28;20366;-55
2021/12/06 14:21:44;;;;;;;31.55;13.50;;;;;;;;;;5048912;28;20037;-57
2021/12/06 14:24:11;;;;;;;27.58;13.48;;;;;;;;;;5048723;28;20038;-56
2021/12/06 14:26:44;;;;;;;25.17;12.18;;;;;;;;;;5051404;28;20025;-57
2021/12/06 14:29:18;;;;;;;23.73;11.57;;;;;;;;;;5052389;28;20029;-58
2021/12/06 14:31:45;;;;;;;24.67;12.05;;;;;;;;;;5050909;28;20039;-57
2021/12/06 14:34:12;;;;;;;28.73;12.48;;;;;;;;;;5050334;28;20029;-54
2021/12/06 14:36:38;;;;;;;26.02;12.07;;;;;;;;;;5042477;28;20048;-56
2021/12/06 14:39:08;;;;;;;32.60;13.55;;;;;;;;;;5050432;28;21427;-54